createdAt,value
2017-03-24T00:00:01.288Z,0
2017-03-24T00:01:14.858Z,0
2017-03-24T00:02:28.229Z,0
2017-03-24T00:03:41.958Z,0
2017-03-24T00:04:56.121Z,0
2017-03-24T00:06:10.516Z,0
2017-03-24T00:07:23.925Z,0
2017-03-24T00:08:37.938Z,0
2017-03-24T00:09:54.753Z,0
2017-03-24T00:11:08.610Z,0
2017-03-24T00:12:22.155Z,0
2017-03-24T00:13:36.134Z,0
2017-03-24T00:14:49.740Z,0
2017-03-24T00:16:03.213Z,0
2017-03-24T00:17:17.080Z,0
2017-03-24T00:18:30.664Z,0
2017-03-24T00:19:44.121Z,0
2017-03-24T00:20:57.641Z,0
2017-03-24T00:22:11.136Z,0
2017-03-24T00:23:24.866Z,0
2017-03-24T00:24:38.633Z,0
2017-03-24T00:25:52.734Z,0
2017-03-24T00:27:06.685Z,0
2017-03-24T00:28:20.532Z,0
2017-03-24T00:29:34.652Z,0
2017-03-24T00:30:48.398Z,0
2017-03-24T00:32:01.814Z,0
2017-03-24T00:33:15.565Z,0
2017-03-24T00:34:28.961Z,0
2017-03-24T00:35:43.374Z,0
2017-03-24T00:36:56.798Z,0
2017-03-24T00:38:10.942Z,0
2017-03-24T00:39:24.689Z,0
2017-03-24T00:40:38.455Z,0
2017-03-24T00:41:52.120Z,0
2017-03-24T00:43:05.949Z,0
2017-03-24T00:44:19.597Z,0
2017-03-24T00:45:33.338Z,0
2017-03-24T00:46:47.383Z,0
2017-03-24T00:48:01.163Z,0
2017-03-24T00:49:15.271Z,0
2017-03-24T00:50:28.802Z,0
2017-03-24T00:51:42.195Z,0
2017-03-24T00:52:55.720Z,0
2017-03-24T00:54:09.532Z,0
2017-03-24T00:55:23.332Z,0
2017-03-24T00:56:36.912Z,0
2017-03-24T00:57:50.827Z,0
2017-03-24T00:59:04.589Z,0
2017-03-24T01:00:18.405Z,0
2017-03-24T01:01:32.064Z,0
2017-03-24T01:02:45.724Z,0
2017-03-24T01:03:59.198Z,0
2017-03-24T01:05:12.735Z,0
2017-03-24T01:06:26.444Z,0
2017-03-24T01:07:41.261Z,0
2017-03-24T01:08:54.688Z,0
2017-03-24T01:10:08.506Z,0
2017-03-24T01:11:22.188Z,0
2017-03-24T01:12:36.065Z,0
2017-03-24T01:13:49.480Z,0
2017-03-24T01:15:03.019Z,0
2017-03-24T01:16:16.415Z,0
2017-03-24T01:17:30.039Z,0
2017-03-24T01:18:43.884Z,0
2017-03-24T01:19:57.944Z,0
2017-03-24T01:21:11.378Z,0
2017-03-24T01:22:24.838Z,0
2017-03-24T01:23:38.393Z,0
2017-03-24T01:24:52.163Z,0
2017-03-24T01:26:08.665Z,0
2017-03-24T01:27:22.817Z,0
2017-03-24T01:28:36.236Z,0
2017-03-24T01:29:49.654Z,0
2017-03-24T01:31:03.334Z,0
2017-03-24T01:32:17.149Z,0
2017-03-24T01:33:30.545Z,0
2017-03-24T01:34:44.682Z,0
2017-03-24T01:35:58.146Z,0
2017-03-24T01:37:12.133Z,0
2017-03-24T01:38:25.588Z,0
2017-03-24T01:39:39.379Z,0
2017-03-24T01:40:52.994Z,0
2017-03-24T01:42:06.687Z,0
2017-03-24T01:43:20.333Z,0
2017-03-24T01:44:34.049Z,0
2017-03-24T01:45:47.525Z,0
2017-03-24T01:47:01.047Z,0
2017-03-24T01:48:14.565Z,0
2017-03-24T01:49:28.459Z,0
2017-03-24T01:50:41.808Z,0
2017-03-24T01:51:55.313Z,0
2017-03-24T01:53:09.098Z,0
2017-03-24T01:54:23.153Z,0
2017-03-24T01:55:36.860Z,0
2017-03-24T01:56:50.478Z,0
2017-03-24T01:58:04.185Z,0
2017-03-24T01:59:17.758Z,0
2017-03-24T02:00:31.270Z,0
2017-03-24T02:01:45.426Z,0
2017-03-24T02:02:58.842Z,0
2017-03-24T02:04:12.538Z,0
2017-03-24T02:05:25.916Z,0
2017-03-24T02:06:39.371Z,0
2017-03-24T02:07:53.148Z,0
2017-03-24T02:09:07.095Z,0
2017-03-24T02:10:20.692Z,0
2017-03-24T02:11:34.844Z,0
2017-03-24T02:12:49.062Z,0
2017-03-24T02:14:04.312Z,0
2017-03-24T02:15:17.763Z,0
2017-03-24T02:16:31.481Z,0
2017-03-24T02:17:45.638Z,0
2017-03-24T02:18:59.674Z,0
2017-03-24T02:20:13.708Z,0
2017-03-24T02:21:27.363Z,0
2017-03-24T02:22:40.810Z,0
2017-03-24T02:23:54.352Z,0
2017-03-24T02:25:07.807Z,0
2017-03-24T02:26:22.121Z,0
2017-03-24T02:27:35.530Z,0
2017-03-24T02:28:49.036Z,0
2017-03-24T02:30:02.501Z,0
2017-03-24T02:31:15.938Z,0
2017-03-24T02:32:29.949Z,0
2017-03-24T02:33:43.742Z,0
2017-03-24T02:34:57.045Z,0
2017-03-24T02:36:10.754Z,0
2017-03-24T02:37:24.042Z,0
2017-03-24T02:38:38.175Z,0
2017-03-24T02:39:51.652Z,0
2017-03-24T02:41:05.075Z,0
2017-03-24T02:42:20.516Z,0
2017-03-24T02:43:33.997Z,0
2017-03-24T02:44:47.839Z,0
2017-03-24T02:46:01.387Z,0
2017-03-24T02:47:14.770Z,0
2017-03-24T02:48:28.328Z,0
2017-03-24T02:49:41.643Z,0
2017-03-24T02:50:55.648Z,0
2017-03-24T02:52:08.961Z,0
2017-03-24T02:53:22.747Z,0
2017-03-24T02:54:36.512Z,0
2017-03-24T02:55:50.036Z,0
2017-03-24T02:57:03.655Z,0
2017-03-24T02:58:17.080Z,0
2017-03-24T02:59:30.464Z,0
2017-03-24T03:00:44.187Z,0
2017-03-24T03:01:57.555Z,0
2017-03-24T03:03:11.312Z,0
2017-03-24T03:04:24.668Z,0
2017-03-24T03:05:38.204Z,0
2017-03-24T03:06:51.825Z,0
2017-03-24T03:08:05.754Z,0
2017-03-24T03:09:19.451Z,0
2017-03-24T03:10:33.472Z,0
2017-03-24T03:11:47.177Z,0
2017-03-24T03:13:00.642Z,0
2017-03-24T03:14:14.637Z,0
2017-03-24T03:15:28.832Z,0
2017-03-24T03:16:42.250Z,0
2017-03-24T03:17:56.112Z,0
2017-03-24T03:19:09.500Z,0
2017-03-24T03:20:23.091Z,0
2017-03-24T03:21:36.868Z,0
2017-03-24T03:22:51.010Z,0
2017-03-24T03:24:04.450Z,0
2017-03-24T03:25:17.982Z,0
2017-03-24T03:26:31.362Z,0
2017-03-24T03:27:45.216Z,0
2017-03-24T03:28:58.895Z,0
2017-03-24T03:30:12.559Z,0
2017-03-24T03:31:26.033Z,0
2017-03-24T03:32:39.877Z,0
2017-03-24T03:33:53.882Z,0
2017-03-24T03:35:07.368Z,0
2017-03-24T03:36:20.918Z,0
2017-03-24T03:37:43.570Z,0
2017-03-24T03:38:56.984Z,0
2017-03-24T03:40:10.684Z,0
2017-03-24T03:41:24.094Z,0
2017-03-24T03:42:38.166Z,0
2017-03-24T03:43:51.762Z,0
2017-03-24T03:45:05.239Z,0
2017-03-24T03:46:18.770Z,0
2017-03-24T03:47:32.487Z,0
2017-03-24T03:48:45.892Z,0
2017-03-24T03:49:59.523Z,0
2017-03-24T03:51:12.883Z,0
2017-03-24T03:52:26.473Z,0
2017-03-24T03:53:39.942Z,0
2017-03-24T03:54:53.499Z,0
2017-03-24T03:56:06.866Z,0
2017-03-24T03:57:20.444Z,0
2017-03-24T03:58:36.205Z,0
2017-03-24T03:59:50.202Z,0
2017-03-24T04:01:03.539Z,0
2017-03-24T04:02:17.169Z,0
2017-03-24T04:03:30.871Z,0
2017-03-24T04:04:45.060Z,0
2017-03-24T04:05:59.093Z,0
2017-03-24T04:07:12.878Z,0
2017-03-24T04:08:26.386Z,0
2017-03-24T04:09:39.952Z,0
2017-03-24T04:10:53.377Z,0
2017-03-24T04:12:07.197Z,0
2017-03-24T04:13:20.958Z,0
2017-03-24T04:14:51.779Z,0
2017-03-24T04:16:05.281Z,0
2017-03-24T04:17:19.268Z,0
2017-03-24T04:18:32.731Z,0
2017-03-24T04:19:46.027Z,0
2017-03-24T04:20:59.746Z,0
2017-03-24T04:22:13.371Z,0
2017-03-24T04:24:18.611Z,0
2017-03-24T04:25:32.171Z,0
2017-03-24T04:26:46.240Z,0
2017-03-24T04:28:00.498Z,0
2017-03-24T04:29:14.592Z,0
2017-03-24T04:30:28.166Z,0
2017-03-24T04:31:41.885Z,0
2017-03-24T04:32:55.550Z,0
2017-03-24T04:34:09.036Z,0
2017-03-24T04:35:22.577Z,0
2017-03-24T04:36:36.016Z,0
2017-03-24T04:37:49.507Z,0
2017-03-24T04:39:02.893Z,0
2017-03-24T04:40:16.476Z,0
2017-03-24T04:41:29.953Z,0
2017-03-24T04:42:44.024Z,0
2017-03-24T04:43:57.452Z,0
2017-03-24T04:45:11.179Z,0
2017-03-24T04:46:24.546Z,0
2017-03-24T04:47:38.275Z,0
2017-03-24T04:48:52.118Z,0
2017-03-24T04:50:05.552Z,0
2017-03-24T04:51:18.946Z,0
2017-03-24T04:52:32.421Z,0
2017-03-24T04:53:45.809Z,0
2017-03-24T04:54:59.356Z,0
2017-03-24T04:56:13.111Z,0
2017-03-24T04:57:26.827Z,0
2017-03-24T04:58:40.303Z,0
2017-03-24T04:59:53.737Z,0
2017-03-24T05:01:07.243Z,0
2017-03-24T05:02:20.706Z,0
2017-03-24T05:03:34.676Z,0
2017-03-24T05:04:48.826Z,0
2017-03-24T05:06:02.253Z,0
2017-03-24T05:07:16.051Z,0
2017-03-24T05:08:29.427Z,0
2017-03-24T05:09:42.968Z,0
2017-03-24T05:10:56.610Z,0
2017-03-24T05:12:10.119Z,0
2017-03-24T05:13:23.807Z,0
2017-03-24T05:14:37.415Z,0
2017-03-24T05:15:53.121Z,0
2017-03-24T05:17:07.639Z,0
2017-03-24T05:18:21.431Z,0
2017-03-24T05:19:35.572Z,0
2017-03-24T05:20:49.239Z,0
2017-03-24T05:22:03.127Z,0
2017-03-24T05:23:16.718Z,0
2017-03-24T05:24:30.518Z,0
2017-03-24T05:25:44.267Z,0
2017-03-24T05:26:57.780Z,0
2017-03-24T05:28:12.677Z,0
2017-03-24T05:29:26.230Z,0
2017-03-24T05:30:40.229Z,0
2017-03-24T05:31:54.059Z,5
2017-03-24T05:33:07.672Z,5
2017-03-24T05:34:21.224Z,5
2017-03-24T05:35:34.639Z,5
2017-03-24T05:36:48.473Z,5
2017-03-24T05:38:01.874Z,5
2017-03-24T05:39:15.382Z,5
2017-03-24T05:40:29.277Z,5
2017-03-24T05:41:42.813Z,5
2017-03-24T05:42:56.252Z,5
2017-03-24T05:44:10.169Z,5
2017-03-24T05:45:23.596Z,5
2017-03-24T05:46:37.054Z,10
2017-03-24T05:47:50.480Z,10
2017-03-24T05:49:04.086Z,10
2017-03-24T05:50:17.657Z,10
2017-03-24T05:51:31.098Z,10
2017-03-24T05:52:45.010Z,15
2017-03-24T05:53:58.483Z,15
2017-03-24T05:55:12.003Z,15
2017-03-24T05:56:25.496Z,15
2017-03-24T05:57:39.522Z,15
2017-03-24T05:58:53.795Z,15
2017-03-24T06:00:07.226Z,15
2017-03-24T06:01:20.655Z,15
2017-03-24T06:02:34.040Z,15
2017-03-24T06:03:48.720Z,15
2017-03-24T06:05:03.254Z,15
2017-03-24T06:06:17.123Z,15
2017-03-24T06:07:31.258Z,20
2017-03-24T06:08:45.206Z,20
2017-03-24T06:09:58.916Z,20
2017-03-24T06:11:12.448Z,20
2017-03-24T06:12:26.311Z,25
2017-03-24T06:13:40.318Z,25
2017-03-24T06:14:53.768Z,25
2017-03-24T06:16:07.655Z,25
2017-03-24T06:17:21.103Z,25
2017-03-24T06:18:34.754Z,30
2017-03-24T06:19:51.978Z,30
2017-03-24T06:21:05.930Z,30
2017-03-24T06:22:20.137Z,30
2017-03-24T06:23:33.702Z,35
2017-03-24T06:24:47.197Z,35
2017-03-24T06:26:01.130Z,35
2017-03-24T06:27:14.973Z,35
2017-03-24T06:28:28.462Z,35
2017-03-24T06:29:43.086Z,40
2017-03-24T06:30:57.138Z,40
2017-03-24T06:32:13.136Z,40
2017-03-24T06:33:36.144Z,40
2017-03-24T06:34:50.227Z,40
2017-03-24T06:36:03.722Z,45
2017-03-24T06:37:17.176Z,50
2017-03-24T06:38:30.721Z,55
2017-03-24T06:39:44.818Z,55
2017-03-24T06:40:58.969Z,55
2017-03-24T06:42:12.417Z,60
2017-03-24T06:43:25.982Z,65
2017-03-24T06:44:39.409Z,65
2017-03-24T06:45:53.287Z,65
2017-03-24T06:47:07.202Z,65
2017-03-24T06:48:21.704Z,65
2017-03-24T06:49:35.085Z,65
2017-03-24T06:50:48.582Z,70
2017-03-24T06:52:02.172Z,70
2017-03-24T06:53:16.056Z,70
2017-03-24T06:54:29.425Z,65
2017-03-24T06:55:42.975Z,65
2017-03-24T06:56:56.490Z,60
2017-03-24T06:58:10.468Z,65
2017-03-24T06:59:23.929Z,65
2017-03-24T07:00:37.774Z,60
2017-03-24T07:01:51.174Z,60
2017-03-24T07:03:19.610Z,60
2017-03-24T07:04:33.017Z,60
2017-03-24T07:05:46.884Z,60
2017-03-24T07:07:00.619Z,60
2017-03-24T07:08:27.831Z,60
2017-03-24T07:09:41.198Z,60
2017-03-24T07:10:54.673Z,60
2017-03-24T07:12:08.113Z,60
2017-03-24T07:13:22.479Z,60
2017-03-24T07:14:35.785Z,55
2017-03-24T07:15:58.603Z,50
2017-03-24T07:17:11.978Z,55
2017-03-24T07:18:25.573Z,55
2017-03-24T07:19:39.215Z,50
2017-03-24T07:20:52.660Z,55
2017-03-24T07:22:06.037Z,55
2017-03-24T07:23:19.567Z,60
2017-03-24T07:24:33.018Z,55
2017-03-24T07:25:46.881Z,60
2017-03-24T07:27:00.634Z,65
2017-03-24T07:28:14.458Z,75
2017-03-24T07:29:28.195Z,75
2017-03-24T07:30:57.402Z,75
2017-03-24T07:32:10.855Z,75
2017-03-24T07:33:26.178Z,75
2017-03-24T07:34:39.859Z,80
2017-03-24T07:35:53.441Z,80
2017-03-24T07:37:07.137Z,90
2017-03-24T07:38:21.133Z,90
2017-03-24T07:39:52.469Z,85
2017-03-24T07:41:06.317Z,90
2017-03-24T07:42:20.690Z,80
2017-03-24T07:43:34.238Z,90
2017-03-24T07:44:48.218Z,95
2017-03-24T07:46:02.413Z,95
2017-03-24T07:47:15.761Z,100
2017-03-24T07:48:29.339Z,105
2017-03-24T07:49:44.980Z,100
2017-03-24T07:50:58.892Z,95
2017-03-24T07:52:12.901Z,95
2017-03-24T07:53:26.394Z,95
2017-03-24T07:54:40.334Z,90
2017-03-24T07:55:54.017Z,85
2017-03-24T07:57:07.415Z,80
2017-03-24T07:58:21.183Z,85
2017-03-24T07:59:34.544Z,85
2017-03-24T08:00:49.192Z,95
2017-03-24T08:02:04.424Z,95
2017-03-24T08:03:19.104Z,95
2017-03-24T08:04:33.200Z,95
2017-03-24T08:05:47.460Z,95
2017-03-24T08:07:00.962Z,90
2017-03-24T08:08:14.694Z,90
2017-03-24T08:09:28.312Z,95
2017-03-24T08:10:42.267Z,95
2017-03-24T08:11:55.731Z,95
2017-03-24T08:13:09.547Z,100
2017-03-24T08:14:23.158Z,100
2017-03-24T08:15:36.574Z,95
2017-03-24T08:16:50.392Z,90
2017-03-24T08:18:03.866Z,90
2017-03-24T08:19:19.112Z,85
2017-03-24T08:20:33.318Z,90
2017-03-24T08:21:47.034Z,95
2017-03-24T08:23:00.864Z,100
2017-03-24T08:24:14.610Z,105
2017-03-24T08:25:45.638Z,100
2017-03-24T08:26:59.388Z,100
2017-03-24T08:28:13.094Z,100
2017-03-24T08:29:26.678Z,105
2017-03-24T08:30:40.519Z,105
2017-03-24T08:31:56.017Z,100
2017-03-24T08:33:09.483Z,110
2017-03-24T08:34:23.207Z,105
2017-03-24T08:35:36.973Z,110
2017-03-24T08:36:50.614Z,105
2017-03-24T08:38:04.540Z,105
2017-03-24T08:39:18.223Z,105
2017-03-24T08:40:32.980Z,115
2017-03-24T08:41:57.206Z,115
2017-03-24T08:43:12.371Z,115
2017-03-24T08:44:26.564Z,105
2017-03-24T08:45:40.144Z,100
2017-03-24T08:46:53.666Z,100
2017-03-24T08:48:07.622Z,100
2017-03-24T08:49:21.110Z,105
2017-03-24T08:50:34.494Z,105
2017-03-24T08:51:48.011Z,105
2017-03-24T08:53:01.480Z,110
2017-03-24T08:54:15.271Z,120
2017-03-24T08:55:28.908Z,125
2017-03-24T08:56:42.463Z,130
2017-03-24T08:57:56.198Z,145
2017-03-24T08:59:09.699Z,125
2017-03-24T09:00:23.674Z,100
2017-03-24T09:01:37.080Z,100
2017-03-24T09:02:50.495Z,105
2017-03-24T09:04:04.407Z,105
2017-03-24T09:05:17.736Z,105
2017-03-24T09:06:33.767Z,110
2017-03-24T09:07:47.137Z,125
2017-03-24T09:09:00.644Z,135
2017-03-24T09:10:14.317Z,170
2017-03-24T09:11:27.833Z,185
2017-03-24T09:12:41.735Z,175
2017-03-24T09:13:55.641Z,185
2017-03-24T09:15:09.046Z,180
2017-03-24T09:16:22.756Z,175
2017-03-24T09:17:36.957Z,175
2017-03-24T09:18:50.795Z,175
2017-03-24T09:20:04.354Z,180
2017-03-24T09:21:17.811Z,195
2017-03-24T09:22:32.044Z,195
2017-03-24T09:23:45.737Z,185
2017-03-24T09:24:59.371Z,215
2017-03-24T09:26:13.315Z,230
2017-03-24T09:27:27.445Z,235
2017-03-24T09:28:41.048Z,240
2017-03-24T09:29:54.403Z,230
2017-03-24T09:31:17.023Z,190
2017-03-24T09:32:30.395Z,195
2017-03-24T09:33:43.808Z,195
2017-03-24T09:34:57.192Z,230
2017-03-24T09:36:10.918Z,220
2017-03-24T09:37:24.278Z,190
2017-03-24T09:38:38.064Z,185
2017-03-24T09:39:51.449Z,235
2017-03-24T09:41:04.933Z,245
2017-03-24T09:42:18.267Z,225
2017-03-24T09:43:31.670Z,240
2017-03-24T09:44:45.509Z,270
2017-03-24T09:45:59.048Z,265
2017-03-24T09:47:12.356Z,275
2017-03-24T09:48:25.802Z,290
2017-03-24T09:49:39.100Z,285
2017-03-24T09:50:52.604Z,275
2017-03-24T09:52:05.958Z,250
2017-03-24T09:53:19.587Z,260
2017-03-24T09:54:33.316Z,270
2017-03-24T09:55:47.089Z,275
2017-03-24T09:57:00.566Z,260
2017-03-24T09:58:14.059Z,245
2017-03-24T09:59:27.620Z,195
2017-03-24T10:00:57.055Z,200
2017-03-24T10:02:10.808Z,230
2017-03-24T10:03:24.785Z,320
2017-03-24T10:04:38.233Z,300
2017-03-24T10:05:51.969Z,275
2017-03-24T10:07:05.685Z,290
2017-03-24T10:08:19.225Z,270
2017-03-24T10:09:32.624Z,245
2017-03-24T10:10:46.111Z,250
2017-03-24T10:11:59.838Z,255
2017-03-24T10:13:13.636Z,245
2017-03-24T10:14:27.386Z,250
2017-03-24T10:15:40.991Z,265
2017-03-24T10:16:54.773Z,250
2017-03-24T10:18:08.862Z,270
2017-03-24T10:19:22.556Z,315
2017-03-24T10:20:36.353Z,275
2017-03-24T10:21:50.152Z,225
2017-03-24T10:23:06.034Z,250
2017-03-24T10:24:19.741Z,300
2017-03-24T10:25:34.179Z,295
2017-03-24T10:26:47.638Z,260
2017-03-24T10:28:01.465Z,265
2017-03-24T10:29:14.842Z,240
2017-03-24T10:30:28.658Z,210
2017-03-24T10:31:42.313Z,190
2017-03-24T10:32:55.776Z,185
2017-03-24T10:34:09.465Z,180
2017-03-24T10:35:23.302Z,175
2017-03-24T10:36:36.654Z,175
2017-03-24T10:37:50.541Z,185
2017-03-24T10:39:03.972Z,200
2017-03-24T10:40:17.876Z,200
2017-03-24T10:41:31.305Z,200
2017-03-24T10:42:44.892Z,200
2017-03-24T10:43:58.627Z,195
2017-03-24T10:45:12.155Z,185
2017-03-24T10:46:25.573Z,180
2017-03-24T10:47:39.340Z,175
2017-03-24T10:48:52.830Z,180
2017-03-24T10:50:06.696Z,190
2017-03-24T10:51:20.075Z,190
2017-03-24T10:52:33.903Z,200
2017-03-24T10:53:47.326Z,210
2017-03-24T10:55:00.858Z,230
2017-03-24T10:56:14.489Z,250
2017-03-24T10:57:27.953Z,265
2017-03-24T10:58:41.685Z,255
2017-03-24T10:59:55.191Z,245
2017-03-24T11:01:08.629Z,245
2017-03-24T11:02:22.806Z,245
2017-03-24T11:03:36.625Z,230
2017-03-24T11:04:50.699Z,240
2017-03-24T11:06:04.937Z,295
2017-03-24T11:07:18.504Z,290
2017-03-24T11:08:32.310Z,305
2017-03-24T11:09:46.065Z,305
2017-03-24T11:10:59.880Z,315
2017-03-24T11:12:13.822Z,310
2017-03-24T11:13:27.526Z,310
2017-03-24T11:14:41.434Z,310
2017-03-24T11:15:54.976Z,305
2017-03-24T11:17:08.963Z,290
2017-03-24T11:18:22.729Z,270
2017-03-24T11:19:36.902Z,250
2017-03-24T11:20:50.586Z,270
2017-03-24T11:22:04.141Z,270
2017-03-24T11:23:17.544Z,265
2017-03-24T11:24:31.378Z,250
2017-03-24T11:25:44.906Z,220
2017-03-24T11:26:59.187Z,235
2017-03-24T11:28:12.924Z,265
2017-03-24T11:29:26.435Z,230
2017-03-24T11:30:39.932Z,205
2017-03-24T11:31:53.743Z,200
2017-03-24T11:33:07.527Z,205
2017-03-24T11:34:21.131Z,220
2017-03-24T11:35:34.734Z,230
2017-03-24T11:36:48.566Z,220
2017-03-24T11:38:02.470Z,220
2017-03-24T11:39:18.559Z,240
2017-03-24T11:40:31.919Z,270
2017-03-24T11:41:45.566Z,275
2017-03-24T11:42:59.039Z,285
2017-03-24T11:44:12.863Z,270
2017-03-24T11:45:26.626Z,275
2017-03-24T11:46:40.251Z,270
2017-03-24T11:47:54.526Z,260
2017-03-24T11:49:08.044Z,260
2017-03-24T11:50:21.684Z,260
2017-03-24T11:51:35.635Z,260
2017-03-24T11:52:49.095Z,250
2017-03-24T11:54:02.607Z,230
2017-03-24T11:55:16.317Z,225
2017-03-24T11:56:30.616Z,210
2017-03-24T11:57:44.662Z,215
2017-03-24T11:58:58.503Z,240
2017-03-24T12:00:11.914Z,250
2017-03-24T12:01:25.611Z,260
2017-03-24T12:02:39.095Z,260
2017-03-24T12:03:52.940Z,270
2017-03-24T12:05:06.335Z,275
2017-03-24T12:06:19.874Z,280
2017-03-24T12:07:33.264Z,280
2017-03-24T12:08:46.751Z,275
2017-03-24T12:10:01.184Z,255
2017-03-24T12:11:14.707Z,235
2017-03-24T12:12:28.199Z,215
2017-03-24T12:13:42.411Z,195
2017-03-24T12:14:55.844Z,185
2017-03-24T12:16:09.573Z,180
2017-03-24T12:17:23.026Z,175
2017-03-24T12:18:36.918Z,180
2017-03-24T12:19:50.797Z,175
2017-03-24T12:21:04.329Z,175
2017-03-24T12:22:18.084Z,180
2017-03-24T12:23:31.860Z,185
2017-03-24T12:24:45.516Z,205
2017-03-24T12:26:12.630Z,220
2017-03-24T12:27:26.100Z,225
2017-03-24T12:28:40.680Z,220
2017-03-24T12:29:54.597Z,220
2017-03-24T12:31:08.487Z,225
2017-03-24T12:32:22.634Z,235
2017-03-24T12:33:36.372Z,240
2017-03-24T12:34:50.522Z,250
2017-03-24T12:36:04.105Z,260
2017-03-24T12:37:17.779Z,260
2017-03-24T12:38:31.984Z,265
2017-03-24T12:39:46.091Z,270
2017-03-24T12:40:59.721Z,275
2017-03-24T12:42:13.618Z,275
2017-03-24T12:43:27.164Z,280
2017-03-24T12:44:40.890Z,285
2017-03-24T12:45:54.393Z,285
2017-03-24T12:47:07.777Z,280
2017-03-24T12:48:21.346Z,270
2017-03-24T12:49:34.833Z,260
2017-03-24T12:50:49.809Z,250
2017-03-24T12:52:03.368Z,235
2017-03-24T12:53:16.976Z,215
2017-03-24T12:54:30.859Z,195
2017-03-24T12:55:46.735Z,185
2017-03-24T12:57:00.635Z,175
2017-03-24T12:58:14.463Z,175
2017-03-24T12:59:28.127Z,170
2017-03-24T13:00:42.446Z,170
2017-03-24T13:01:56.222Z,170
2017-03-24T13:03:10.927Z,175
2017-03-24T13:04:24.479Z,175
2017-03-24T13:05:38.186Z,175
2017-03-24T13:06:51.623Z,175
2017-03-24T13:08:05.248Z,175
2017-03-24T13:09:19.280Z,175
2017-03-24T13:10:32.946Z,170
2017-03-24T13:11:46.469Z,170
2017-03-24T13:13:00.024Z,170
2017-03-24T13:14:13.489Z,170
2017-03-24T13:15:28.009Z,170
2017-03-24T13:16:41.713Z,165
2017-03-24T13:17:55.962Z,165
2017-03-24T13:19:09.400Z,165
2017-03-24T13:20:23.322Z,160
2017-03-24T13:21:37.180Z,165
2017-03-24T13:22:51.647Z,155
2017-03-24T13:24:05.861Z,150
2017-03-24T13:25:19.588Z,155
2017-03-24T13:26:33.366Z,155
2017-03-24T13:27:47.496Z,155
2017-03-24T13:29:01.264Z,165
2017-03-24T13:30:14.879Z,160
2017-03-24T13:31:29.992Z,155
2017-03-24T13:32:43.966Z,150
2017-03-24T13:33:57.752Z,150
2017-03-24T13:35:11.440Z,145
2017-03-24T13:36:25.270Z,140
2017-03-24T13:37:38.828Z,135
2017-03-24T13:38:53.491Z,130
2017-03-24T13:40:07.319Z,125
2017-03-24T13:41:21.067Z,120
2017-03-24T13:42:34.665Z,120
2017-03-24T13:43:48.652Z,120
2017-03-24T13:45:02.525Z,120
2017-03-24T13:46:16.172Z,125
2017-03-24T13:47:30.138Z,135
2017-03-24T13:48:43.592Z,145
2017-03-24T13:49:57.120Z,155
2017-03-24T13:51:10.627Z,155
2017-03-24T13:52:24.715Z,145
2017-03-24T13:53:38.511Z,140
2017-03-24T13:54:52.045Z,135
2017-03-24T13:56:08.544Z,135
2017-03-24T13:57:22.104Z,140
2017-03-24T13:58:35.941Z,145
2017-03-24T13:59:49.540Z,150
2017-03-24T14:01:03.203Z,145
2017-03-24T14:02:16.675Z,150
2017-03-24T14:03:30.536Z,145
2017-03-24T14:04:44.906Z,140
2017-03-24T14:05:58.231Z,140
2017-03-24T14:07:11.824Z,135
2017-03-24T14:08:25.218Z,135
2017-03-24T14:09:38.806Z,135
2017-03-24T14:10:52.963Z,140
2017-03-24T14:12:09.099Z,145
2017-03-24T14:13:22.629Z,145
2017-03-24T14:14:49.291Z,140
2017-03-24T14:16:03.159Z,145
2017-03-24T14:17:16.712Z,150
2017-03-24T14:18:30.600Z,145
2017-03-24T14:19:44.083Z,140
2017-03-24T14:20:57.752Z,135
2017-03-24T14:22:25.544Z,135
2017-03-24T14:23:39.492Z,130
2017-03-24T14:24:53.199Z,125
2017-03-24T14:26:06.522Z,125
2017-03-24T14:27:20.004Z,125
2017-03-24T14:28:33.790Z,125
2017-03-24T14:29:47.382Z,120
2017-03-24T14:31:00.767Z,120
2017-03-24T14:32:14.520Z,120
2017-03-24T14:33:28.232Z,125
2017-03-24T14:34:42.495Z,125
2017-03-24T14:35:55.921Z,120
2017-03-24T14:37:09.518Z,125
2017-03-24T14:38:23.881Z,125
2017-03-24T14:39:37.874Z,130
2017-03-24T14:40:52.096Z,130
2017-03-24T14:42:05.941Z,130
2017-03-24T14:43:19.655Z,130
2017-03-24T14:44:34.731Z,135
2017-03-24T14:45:48.137Z,135
2017-03-24T14:48:09.089Z,130
2017-03-24T14:49:28.984Z,130
2017-03-24T14:50:43.259Z,130
2017-03-24T14:52:11.578Z,125
2017-03-24T14:53:24.950Z,125
2017-03-24T14:54:38.868Z,125
2017-03-24T14:55:52.379Z,125
2017-03-24T14:57:26.988Z,125
2017-03-24T14:58:49.676Z,125
2017-03-24T15:00:03.702Z,125
2017-03-24T15:01:17.604Z,125
2017-03-24T15:02:31.481Z,125
2017-03-24T15:03:45.371Z,125
2017-03-24T15:04:59.818Z,125
2017-03-24T15:06:27.983Z,125
2017-03-24T15:07:42.009Z,120
2017-03-24T15:08:56.029Z,125
2017-03-24T15:10:10.132Z,125
2017-03-24T15:11:23.823Z,120
2017-03-24T15:12:37.323Z,120
2017-03-24T15:14:16.555Z,120
2017-03-24T15:15:31.249Z,120
2017-03-24T15:16:45.182Z,120
2017-03-24T15:17:58.841Z,120
2017-03-24T15:19:12.299Z,120
2017-03-24T15:20:26.274Z,120
2017-03-24T15:21:39.720Z,120
2017-03-24T15:22:53.524Z,120
2017-03-24T15:24:07.504Z,115
2017-03-24T15:25:21.878Z,115
2017-03-24T15:26:35.275Z,115
2017-03-24T15:27:48.778Z,115
2017-03-24T15:29:02.222Z,115
2017-03-24T15:30:15.803Z,115
2017-03-24T15:31:32.586Z,110
2017-03-24T15:32:46.422Z,110
2017-03-24T15:33:59.906Z,110
2017-03-24T15:35:13.855Z,110
2017-03-24T15:36:27.384Z,110
2017-03-24T15:37:40.968Z,110
2017-03-24T15:38:54.931Z,110
2017-03-24T15:40:08.772Z,110
2017-03-24T15:41:22.183Z,110
2017-03-24T15:42:35.821Z,110
2017-03-24T15:43:49.239Z,105
2017-03-24T15:45:03.110Z,105
2017-03-24T15:46:16.667Z,105
2017-03-24T15:47:30.387Z,105
2017-03-24T15:48:45.642Z,105
2017-03-24T15:49:59.902Z,105
2017-03-24T15:51:13.615Z,100
2017-03-24T15:52:38.143Z,100
2017-03-24T15:53:51.662Z,100
2017-03-24T15:55:05.790Z,100
2017-03-24T15:56:19.627Z,100
2017-03-24T15:57:33.772Z,95
2017-03-24T15:58:47.476Z,95
2017-03-24T16:00:02.082Z,95
2017-03-24T16:01:16.047Z,95
2017-03-24T16:02:29.659Z,95
2017-03-24T16:03:43.202Z,95
2017-03-24T16:04:57.010Z,95
2017-03-24T16:06:10.828Z,95
2017-03-24T16:07:25.696Z,95
2017-03-24T16:08:39.201Z,90
2017-03-24T16:09:53.052Z,90
2017-03-24T16:11:06.816Z,90
2017-03-24T16:12:20.430Z,90
2017-03-24T16:13:34.071Z,90
2017-03-24T16:14:47.924Z,85
2017-03-24T16:16:01.991Z,85
2017-03-24T16:17:15.595Z,85
2017-03-24T16:18:30.272Z,85
2017-03-24T16:19:45.829Z,85
2017-03-24T16:21:00.389Z,85
2017-03-24T16:22:14.558Z,80
2017-03-24T16:23:29.500Z,80
2017-03-24T16:24:57.878Z,80
2017-03-24T16:26:11.831Z,80
2017-03-24T16:27:26.531Z,80
2017-03-24T16:28:40.591Z,75
2017-03-24T16:29:54.423Z,75
2017-03-24T16:31:08.673Z,75
2017-03-24T16:32:23.949Z,75
2017-03-24T16:33:37.499Z,70
2017-03-24T16:34:51.501Z,70
2017-03-24T16:36:05.482Z,70
2017-03-24T16:37:20.863Z,70
2017-03-24T16:38:34.529Z,65
2017-03-24T16:39:48.245Z,65
2017-03-24T16:41:02.763Z,65
2017-03-24T16:42:16.406Z,65
2017-03-24T16:43:42.644Z,60
2017-03-24T16:44:56.665Z,60
2017-03-24T16:46:10.049Z,60
2017-03-24T16:47:23.971Z,55
2017-03-24T16:48:39.861Z,55
2017-03-24T16:49:54.055Z,55
2017-03-24T16:51:07.630Z,55
2017-03-24T16:52:21.242Z,55
2017-03-24T16:53:35.392Z,50
2017-03-24T16:54:49.397Z,50
2017-03-24T16:56:02.779Z,50
2017-03-24T16:57:16.985Z,45
2017-03-24T16:58:30.693Z,45
2017-03-24T17:00:00.998Z,45
2017-03-24T17:01:14.443Z,45
2017-03-24T17:02:27.995Z,40
2017-03-24T17:03:41.795Z,40
2017-03-24T17:04:55.758Z,40
2017-03-24T17:06:09.735Z,40
2017-03-24T17:07:23.241Z,35
2017-03-24T17:08:37.415Z,35
2017-03-24T17:09:51.066Z,35
2017-03-24T17:11:04.468Z,35
2017-03-24T17:12:18.263Z,30
2017-03-24T17:13:31.992Z,30
2017-03-24T17:14:45.490Z,30
2017-03-24T17:15:58.938Z,25
2017-03-24T17:17:12.538Z,25
2017-03-24T17:18:26.225Z,25
2017-03-24T17:19:40.393Z,20
2017-03-24T17:20:54.172Z,20
2017-03-24T17:22:07.732Z,20
2017-03-24T17:23:21.945Z,20
2017-03-24T17:24:35.812Z,20
2017-03-24T17:25:49.387Z,15
2017-03-24T17:27:02.865Z,15
2017-03-24T17:28:17.401Z,15
2017-03-24T17:29:31.413Z,15
2017-03-24T17:30:45.457Z,10
2017-03-24T17:31:59.336Z,10
2017-03-24T17:33:13.078Z,10
2017-03-24T17:34:30.463Z,10
2017-03-24T17:35:44.468Z,10